Wilson Algeciras — 9HA2471 — position and weather

sailwx.info

Track history (hours):
 
Tides and Currents Weather Stations Pressure Air Temp Water Temp Dewpoint Dewpoint Depression Visibility Wind Speed Wind Dir Waves Ship Positions

Wilson Algeciras

Last reported at 2015-Jul-30 22:32 UTC. Time now 2015-Jul-30 23:02 UTC.
Position N 44°01' E 010°01'.

Length 88 m; draft 3.1 m.

Type: Cargo ship. MMSI: 248689000.

Date/timePositionNaut miles runAvg speedWind from/ knotsBaromVisibWave heightAir tempDewpointWater temp
2015-Jul-30 22:32N 44°01' E 010°01'6 5.9
2015-Jul-30 21:33N 43°56' E 010°00'9 9.1
2015-Jul-30 20:34N 43°47' E 010°05'10 9.6
2015-Jul-30 19:33N 43°38' E 010°05'7 7.2
2015-Jul-30 18:33N 43°31' E 010°08'8 8.0
2015-Jul-30 17:33N 43°34' E 010°18'0 0.3
2015-Jul-30 16:32N 43°34' E 010°18'0 0.0
2015-Jul-30 15:32N 43°34' E 010°18'0 0.0
2015-Jul-30 14:32N 43°34' E 010°18'0 0.0
2015-Jul-30 13:33N 43°34' E 010°18'4 4.4
2015-Jul-30 12:34N 43°30' E 010°16'1 0.6
2015-Jul-30 11:31N 43°30' E 010°17'0 0.0
2015-Jul-30 10:31N 43°30' E 010°17'0 0.0
2015-Jul-30 09:31N 43°30' E 010°17'0 0.0
2015-Jul-30 08:31N 43°30' E 010°17'0 0.0
2015-Jul-30 07:31N 43°30' E 010°17'0 0.0
2015-Jul-30 06:31N 43°30' E 010°17'0 0.0
2015-Jul-30 05:31N 43°30' E 010°17'0 0.0
2015-Jul-30 04:28N 43°30' E 010°17'0 0.0
2015-Jul-30 03:28N 43°30' E 010°17'0 0.0
2015-Jul-30 02:31N 43°30' E 010°17'0 0.0
2015-Jul-30 01:31N 43°30' E 010°17'0 0.0
2015-Jul-30 00:31N 43°30' E 010°17'0 0.0
2015-Jul-29 23:31N 43°30' E 010°17'0 0.0
2015-Jul-29 22:31N 43°30' E 010°17'0 0.0
2015-Jul-29 21:31N 43°30' E 010°17'0 0.0
2015-Jul-29 20:31N 43°30' E 010°17'0 0.0
2015-Jul-29 19:31N 43°30' E 010°17'0 0.0
2015-Jul-29 18:31N 43°30' E 010°17'0 0.0
2015-Jul-29 17:31N 43°30' E 010°17'0 0.0
2015-Jul-29 16:31N 43°30' E 010°17'0 0.0
2015-Jul-29 15:31N 43°30' E 010°17'0 0.0
2015-Jul-29 14:31N 43°30' E 010°17'0 0.0
2015-Jul-29 13:31N 43°30' E 010°17'0 0.0
2015-Jul-29 12:31N 43°30' E 010°17'0 0.0
2015-Jul-29 11:28N 43°30' E 010°17'0 0.0
2015-Jul-29 10:31N 43°30' E 010°17'0 0.0
2015-Jul-29 09:31N 43°30' E 010°17'0 0.0
2015-Jul-29 08:31N 43°30' E 010°17'0 0.0
2015-Jul-29 07:25N 43°30' E 010°17'0 0.0
2015-Jul-29 06:31N 43°30' E 010°17'0 0.0
2015-Jul-29 05:28N 43°30' E 010°17'0 0.0
2015-Jul-29 04:31N 43°30' E 010°17'0 0.0
2015-Jul-29 03:31N 43°30' E 010°17'0 0.0
2015-Jul-29 02:31N 43°30' E 010°17'0 0.0
2015-Jul-29 01:31N 43°30' E 010°17'0 0.0
2015-Jul-29 00:31N 43°30' E 010°17'0 0.0
2015-Jul-28 23:31N 43°30' E 010°17'0 0.0
2015-Jul-28 22:31N 43°30' E 010°17'0 0.0
2015-Jul-28 21:31N 43°30' E 010°17'0 0.0
2015-Jul-28 20:25N 43°30' E 010°17'0 0.0
2015-Jul-28 19:31N 43°30' E 010°17'0 0.0
2015-Jul-28 18:31N 43°30' E 010°17'0 0.0
2015-Jul-28 17:31N 43°30' E 010°17'0 0.0
2015-Jul-28 16:31N 43°30' E 010°17'0 0.0
2015-Jul-28 15:31N 43°30' E 010°17'3 3.6
2015-Jul-28 14:34N 43°29' E 010°12'8 7.7
2015-Jul-28 13:34N 43°34' E 010°05'7 7.2
2015-Jul-28 12:34N 43°41' E 010°09'8 8.2
2015-Jul-28 11:34N 43°49' E 010°05'9 9.4
2015-Jul-28 10:34N 43°56' E 009°57'9 8.8
2015-Jul-28 09:34N 44°04' E 009°51'3 2.5
2015-Jul-28 08:33N 44°07' E 009°50'0 0.0
2015-Jul-28 07:30N 44°07' E 009°50'0 0.0
2015-Jul-28 06:33N 44°07' E 009°50'0 0.0
2015-Jul-28 05:30N 44°07' E 009°50'0 0.0
2015-Jul-28 04:33N 44°07' E 009°50'0 0.0
2015-Jul-28 03:33N 44°07' E 009°50'0 0.0
2015-Jul-28 02:33N 44°07' E 009°50'0 0.0
2015-Jul-28 01:33N 44°07' E 009°50'0 0.0
2015-Jul-28 00:33N 44°07' E 009°50'0 0.0
2015-Jul-27 23:33N 44°07' E 009°50'0 0.0
2015-Jul-27 22:33N 44°07' E 009°50'0 0.0
2015-Jul-27 21:33N 44°07' E 009°50'0 0.0
2015-Jul-27 20:33N 44°07' E 009°50'0 0.0
2015-Jul-27 19:33N 44°07' E 009°50'0 0.0
2015-Jul-27 18:33N 44°07' E 009°50'0 0.0
2015-Jul-27 17:33N 44°07' E 009°50'2 2.2
2015-Jul-27 16:33N 44°04' E 009°51'5 4.5
2015-Jul-27 15:33N 44°01' E 009°55'9 9.2
2015-Jul-27 14:33N 43°52' E 009°59'9 9.0
2015-Jul-27 13:34N 43°44' E 010°02'9 9.1
2015-Jul-27 12:33N 43°35' E 010°04'30 9.7
2015-Jul-27 09:31N 43°07' E 010°20'10 9.8
2015-Jul-27 08:32N 42°59' E 010°26'328 8.6
2015-Jul-25 18:28N 38°48' E 015°04'8 8.8
2015-Jul-25 17:33N 38°42' E 015°11'9 8.9
2015-Jul-25 16:33N 38°35' E 015°19'9 8.7
2015-Jul-25 15:33N 38°29' E 015°27'9 8.6
2015-Jul-25 14:33N 38°23' E 015°35'9 8.5
2015-Jul-25 13:33N 38°16' E 015°41'9 9.0
2015-Jul-25 12:33N 38°08' E 015°36'9 9.2
2015-Jul-25 11:33N 37°59' E 015°36'9 9.3
2015-Jul-25 10:33N 37°53' E 015°45'11 9.7
2015-Jul-25 09:25N 37°52' E 015°59'  
Track history (hours):
 
Tides and Currents Weather Stations Pressure Air Temp Water Temp Dewpoint Dewpoint Depression Visibility Wind Speed Wind Dir Waves Ship Positions

Wilson Algeciras

Last reported at 2015-Jul-30 22:32 UTC. Time now 2015-Jul-30 23:02 UTC.
Position N 44°01' E 010°01'.

Length 88 m; draft 3.1 m.

Type: Cargo ship. MMSI: 248689000.

Date/timePositionNaut miles runAvg speedWind from/ knotsBaromVisibWave heightAir tempDewpointWater temp
2015-Jul-30 22:32N 44°01' E 010°01'6 5.9
2015-Jul-30 21:33N 43°56' E 010°00'9 9.1
2015-Jul-30 20:34N 43°47' E 010°05'10 9.6
2015-Jul-30 19:33N 43°38' E 010°05'7 7.2
2015-Jul-30 18:33N 43°31' E 010°08'8 8.0
2015-Jul-30 17:33N 43°34' E 010°18'0 0.3
2015-Jul-30 16:32N 43°34' E 010°18'0 0.0
2015-Jul-30 15:32N 43°34' E 010°18'0 0.0
2015-Jul-30 14:32N 43°34' E 010°18'0 0.0
2015-Jul-30 13:33N 43°34' E 010°18'4 4.4
2015-Jul-30 12:34N 43°30' E 010°16'1 0.6
2015-Jul-30 11:31N 43°30' E 010°17'0 0.0
2015-Jul-30 10:31N 43°30' E 010°17'0 0.0
2015-Jul-30 09:31N 43°30' E 010°17'0 0.0
2015-Jul-30 08:31N 43°30' E 010°17'0 0.0
2015-Jul-30 07:31N 43°30' E 010°17'0 0.0
2015-Jul-30 06:31N 43°30' E 010°17'0 0.0
2015-Jul-30 05:31N 43°30' E 010°17'0 0.0
2015-Jul-30 04:28N 43°30' E 010°17'0 0.0
2015-Jul-30 03:28N 43°30' E 010°17'0 0.0
2015-Jul-30 02:31N 43°30' E 010°17'0 0.0
2015-Jul-30 01:31N 43°30' E 010°17'0 0.0
2015-Jul-30 00:31N 43°30' E 010°17'0 0.0
2015-Jul-29 23:31N 43°30' E 010°17'0 0.0
2015-Jul-29 22:31N 43°30' E 010°17'0 0.0
2015-Jul-29 21:31N 43°30' E 010°17'0 0.0
2015-Jul-29 20:31N 43°30' E 010°17'0 0.0
2015-Jul-29 19:31N 43°30' E 010°17'0 0.0
2015-Jul-29 18:31N 43°30' E 010°17'0 0.0
2015-Jul-29 17:31N 43°30' E 010°17'0 0.0
2015-Jul-29 16:31N 43°30' E 010°17'0 0.0
2015-Jul-29 15:31N 43°30' E 010°17'0 0.0
2015-Jul-29 14:31N 43°30' E 010°17'0 0.0
2015-Jul-29 13:31N 43°30' E 010°17'0 0.0
2015-Jul-29 12:31N 43°30' E 010°17'0 0.0
2015-Jul-29 11:28N 43°30' E 010°17'0 0.0
2015-Jul-29 10:31N 43°30' E 010°17'0 0.0
2015-Jul-29 09:31N 43°30' E 010°17'0 0.0
2015-Jul-29 08:31N 43°30' E 010°17'0 0.0
2015-Jul-29 07:25N 43°30' E 010°17'0 0.0
2015-Jul-29 06:31N 43°30' E 010°17'0 0.0
2015-Jul-29 05:28N 43°30' E 010°17'0 0.0
2015-Jul-29 04:31N 43°30' E 010°17'0 0.0
2015-Jul-29 03:31N 43°30' E 010°17'0 0.0
2015-Jul-29 02:31N 43°30' E 010°17'0 0.0
2015-Jul-29 01:31N 43°30' E 010°17'0 0.0
2015-Jul-29 00:31N 43°30' E 010°17'0 0.0
2015-Jul-28 23:31N 43°30' E 010°17'0 0.0
2015-Jul-28 22:31N 43°30' E 010°17'0 0.0
2015-Jul-28 21:31N 43°30' E 010°17'0 0.0
2015-Jul-28 20:25N 43°30' E 010°17'0 0.0
2015-Jul-28 19:31N 43°30' E 010°17'0 0.0
2015-Jul-28 18:31N 43°30' E 010°17'0 0.0
2015-Jul-28 17:31N 43°30' E 010°17'0 0.0
2015-Jul-28 16:31N 43°30' E 010°17'0 0.0
2015-Jul-28 15:31N 43°30' E 010°17'3 3.6
2015-Jul-28 14:34N 43°29' E 010°12'8 7.7
2015-Jul-28 13:34N 43°34' E 010°05'7 7.2
2015-Jul-28 12:34N 43°41' E 010°09'8 8.2
2015-Jul-28 11:34N 43°49' E 010°05'9 9.4
2015-Jul-28 10:34N 43°56' E 009°57'9 8.8
2015-Jul-28 09:34N 44°04' E 009°51'3 2.5
2015-Jul-28 08:33N 44°07' E 009°50'0 0.0
2015-Jul-28 07:30N 44°07' E 009°50'0 0.0
2015-Jul-28 06:33N 44°07' E 009°50'0 0.0
2015-Jul-28 05:30N 44°07' E 009°50'0 0.0
2015-Jul-28 04:33N 44°07' E 009°50'0 0.0
2015-Jul-28 03:33N 44°07' E 009°50'0 0.0
2015-Jul-28 02:33N 44°07' E 009°50'0 0.0
2015-Jul-28 01:33N 44°07' E 009°50'0 0.0
2015-Jul-28 00:33N 44°07' E 009°50'0 0.0
2015-Jul-27 23:33N 44°07' E 009°50'0 0.0
2015-Jul-27 22:33N 44°07' E 009°50'0 0.0
2015-Jul-27 21:33N 44°07' E 009°50'0 0.0
2015-Jul-27 20:33N 44°07' E 009°50'0 0.0
2015-Jul-27 19:33N 44°07' E 009°50'0 0.0
2015-Jul-27 18:33N 44°07' E 009°50'0 0.0
2015-Jul-27 17:33N 44°07' E 009°50'2 2.2
2015-Jul-27 16:33N 44°04' E 009°51'5 4.5
2015-Jul-27 15:33N 44°01' E 009°55'9 9.2
2015-Jul-27 14:33N 43°52' E 009°59'9 9.0
2015-Jul-27 13:34N 43°44' E 010°02'9 9.1
2015-Jul-27 12:33N 43°35' E 010°04'30 9.7
2015-Jul-27 09:31N 43°07' E 010°20'10 9.8
2015-Jul-27 08:32N 42°59' E 010°26'328 8.6
2015-Jul-25 18:28N 38°48' E 015°04'8 8.8
2015-Jul-25 17:33N 38°42' E 015°11'9 8.9
2015-Jul-25 16:33N 38°35' E 015°19'9 8.7
2015-Jul-25 15:33N 38°29' E 015°27'9 8.6
2015-Jul-25 14:33N 38°23' E 015°35'9 8.5
2015-Jul-25 13:33N 38°16' E 015°41'9 9.0
2015-Jul-25 12:33N 38°08' E 015°36'9 9.2
2015-Jul-25 11:33N 37°59' E 015°36'9 9.3
2015-Jul-25 10:33N 37°53' E 015°45'11 9.7
2015-Jul-25 09:25N 37°52' E 015°59'  

Dump ship's entire track history